Time;durP1;ratioP1;P1;durP2;ratioP2;P2;SDS_P1;SDS_P2;PMS_P1;PMS_P2;Temp;Humidity;BMP_temperature;BMP_pressure;BME280_temperature;BME280_humidity;BME280_pressure;Samples;Min_cycle;Max_cycle;Signal;HPM_P1;HPM_P2
2021/04/09 00:03:11;;;;;;;9.17;3.77;;;;;;;;;;10507312;28;20219;-68
2021/04/09 00:08:14;;;;;;;6.03;2.83;;;;;;;;;;10510601;28;20285;-68
2021/04/09 00:13:16;;;;;;;6.53;3.20;;;;;;;;;;10515798;28;20254;-68
2021/04/09 00:18:19;;;;;;;5.13;2.70;;;;;;;;;;10501135;28;20569;-68
2021/04/09 00:23:21;;;;;;;4.47;1.70;;;;;;;;;;10508938;28;20211;-68
2021/04/09 00:28:23;;;;;;;7.20;3.17;;;;;;;;;;10498302;28;20227;-68
2021/04/09 00:33:25;;;;;;;6.33;2.97;;;;;;;;;;10506457;28;20195;-68
2021/04/09 00:38:28;;;;;;;7.87;3.07;;;;;;;;;;10515353;28;20216;-68
2021/04/09 00:43:30;;;;;;;6.53;2.93;;;;;;;;;;10518298;28;20224;-65
2021/04/09 00:48:32;;;;;;;6.27;2.90;;;;;;;;;;10511044;28;20585;-68
2021/04/09 00:53:35;;;;;;;6.37;2.53;;;;;;;;;;10518156;28;20198;-67
2021/04/09 00:58:38;;;;;;;6.00;2.60;;;;;;;;;;10518000;28;20265;-68
2021/04/09 01:03:40;;;;;;;5.93;2.70;;;;;;;;;;10506301;28;20261;-68
2021/04/09 01:08:43;;;;;;;6.40;2.63;;;;;;;;;;10507542;28;20215;-68
2021/04/09 01:13:45;;;;;;;4.70;2.23;;;;;;;;;;10509136;28;20196;-69
2021/04/09 01:18:49;;;;;;;6.23;2.30;;;;;;;;;;10508079;28;20273;-69
2021/04/09 01:24:01;;;;;;;8.77;2.83;;;;;;;;;;10508364;28;20212;-69
2021/04/09 01:29:13;;;;;;;6.13;2.63;;;;;;;;;;10499752;28;20684;-67
2021/04/09 01:34:17;;;;;;;5.23;2.13;;;;;;;;;;10497561;28;20201;-68
2021/04/09 01:39:22;;;;;;;6.13;2.57;;;;;;;;;;10513966;28;20197;-68
2021/04/09 01:44:26;;;;;;;7.03;2.60;;;;;;;;;;10510486;28;20639;-69
2021/04/09 01:49:32;;;;;;;4.67;2.57;;;;;;;;;;10509631;28;20773;-67
2021/04/09 01:54:34;;;;;;;6.33;2.40;;;;;;;;;;10506995;28;20211;-68
2021/04/09 01:59:38;;;;;;;2.43;1.37;;;;;;;;;;10503342;28;20262;-67
2021/04/09 02:04:42;;;;;;;6.37;2.50;;;;;;;;;;10506031;28;20311;-70
2021/04/09 02:09:45;;;;;;;3.80;1.67;;;;;;;;;;10508417;28;20227;-69
2021/04/09 02:14:47;;;;;;;4.90;2.03;;;;;;;;;;10503040;28;20302;-69
2021/04/09 02:19:50;;;;;;;6.03;2.67;;;;;;;;;;10506864;28;20197;-69
2021/04/09 02:24:55;;;;;;;5.27;2.60;;;;;;;;;;10507445;28;20224;-67
2021/04/09 02:29:57;;;;;;;3.80;2.23;;;;;;;;;;10509825;28;20196;-68
2021/04/09 02:35:00;;;;;;;5.77;2.53;;;;;;;;;;10511232;28;20220;-68
2021/04/09 02:40:05;;;;;;;5.63;2.40;;;;;;;;;;10521550;28;20199;-67
2021/04/09 02:45:08;;;;;;;5.20;2.47;;;;;;;;;;10512471;28;20726;-68
2021/04/09 02:50:15;;;;;;;6.40;2.53;;;;;;;;;;10517510;28;20250;-68
2021/04/09 02:55:18;;;;;;;5.97;2.60;;;;;;;;;;10511859;28;20220;-68
2021/04/09 03:00:21;;;;;;;6.03;1.90;;;;;;;;;;10517234;28;20200;-69
2021/04/09 03:05:24;;;;;;;5.90;2.40;;;;;;;;;;10507913;28;20239;-69
2021/04/09 03:10:26;;;;;;;5.77;2.43;;;;;;;;;;10511464;28;20191;-69
2021/04/09 03:15:31;;;;;;;6.27;2.40;;;;;;;;;;10513907;28;20216;-68
2021/04/09 03:20:34;;;;;;;4.80;1.87;;;;;;;;;;10514933;28;20233;-69
2021/04/09 03:25:36;;;;;;;6.97;2.57;;;;;;;;;;10505615;28;20711;-68
2021/04/09 03:30:38;;;;;;;6.37;2.77;;;;;;;;;;10508808;28;20212;-68
2021/04/09 03:35:41;;;;;;;9.93;2.30;;;;;;;;;;10519854;28;20294;-69
2021/04/09 03:40:43;;;;;;;7.00;2.40;;;;;;;;;;10514465;28;20196;-69
2021/04/09 03:45:45;;;;;;;5.93;2.53;;;;;;;;;;10514393;28;20224;-69
2021/04/09 03:50:48;;;;;;;4.73;2.57;;;;;;;;;;10514943;28;20245;-69
2021/04/09 03:55:50;;;;;;;5.37;2.70;;;;;;;;;;10524516;28;20291;-69
2021/04/09 04:00:52;;;;;;;5.27;2.30;;;;;;;;;;10513762;28;20525;-68
2021/04/09 04:05:55;;;;;;;6.07;2.50;;;;;;;;;;10507777;28;20220;-69
2021/04/09 04:10:58;;;;;;;5.37;2.50;;;;;;;;;;10513278;28;21478;-68
2021/04/09 04:16:00;;;;;;;5.23;2.00;;;;;;;;;;10511918;28;20601;-68
2021/04/09 04:21:03;;;;;;;5.77;2.60;;;;;;;;;;10505053;28;20235;-67
2021/04/09 04:26:04;;;;;;;6.60;2.17;;;;;;;;;;10510640;28;20223;-69
2021/04/09 04:31:06;;;;;;;6.57;2.03;;;;;;;;;;10510344;28;20753;-69
2021/04/09 04:36:09;;;;;;;2.43;1.00;;;;;;;;;;10507989;28;20216;-69
2021/04/09 04:41:11;;;;;;;3.90;1.80;;;;;;;;;;10507062;28;20262;-70
2021/04/09 04:46:14;;;;;;;5.83;1.93;;;;;;;;;;10513979;28;20660;-69
2021/04/09 04:51:16;;;;;;;1.20;0.70;;;;;;;;;;10515655;28;20234;-69
2021/04/09 04:56:19;;;;;;;4.77;1.60;;;;;;;;;;10510531;28;20216;-68
2021/04/09 05:01:21;;;;;;;8.53;2.30;;;;;;;;;;10505392;28;20278;-70
2021/04/09 05:06:24;;;;;;;6.10;1.90;;;;;;;;;;10515637;28;20219;-70
2021/04/09 05:11:26;;;;;;;9.80;2.23;;;;;;;;;;10511167;28;20595;-70
2021/04/09 05:16:28;;;;;;;7.47;2.07;;;;;;;;;;10513294;28;20222;-70
2021/04/09 05:21:31;;;;;;;5.87;2.37;;;;;;;;;;10507809;28;20191;-71
2021/04/09 05:26:33;;;;;;;5.47;2.10;;;;;;;;;;10536565;28;20580;-71
2021/04/09 05:31:35;;;;;;;7.40;2.00;;;;;;;;;;10538857;28;20297;-69
2021/04/09 05:36:38;;;;;;;8.27;2.00;;;;;;;;;;10527992;28;20668;-70
2021/04/09 05:41:40;;;;;;;5.73;1.97;;;;;;;;;;10515762;28;20195;-68
2021/04/09 05:46:44;;;;;;;4.90;2.03;;;;;;;;;;10510521;28;20214;-69
2021/04/09 05:51:47;;;;;;;4.80;2.10;;;;;;;;;;10508886;28;20200;-69
2021/04/09 05:56:49;;;;;;;3.27;1.10;;;;;;;;;;10509142;28;20204;-69
2021/04/09 06:01:52;;;;;;;5.27;1.80;;;;;;;;;;10521075;28;20199;-69
2021/04/09 06:06:55;;;;;;;3.30;1.20;;;;;;;;;;10517863;28;20220;-70
2021/04/09 06:12:00;;;;;;;4.27;1.73;;;;;;;;;;10527230;28;20687;-69
2021/04/09 06:17:02;;;;;;;5.70;1.80;;;;;;;;;;10506175;28;20211;-69
2021/04/09 06:22:05;;;;;;;7.50;2.83;;;;;;;;;;10515327;28;20192;-70
2021/04/09 06:27:08;;;;;;;6.40;1.90;;;;;;;;;;10512000;28;20319;-70
2021/04/09 06:32:09;;;;;;;6.57;2.03;;;;;;;;;;10512972;28;20277;-70
2021/04/09 06:37:12;;;;;;;8.07;1.90;;;;;;;;;;10520039;28;20214;-70
2021/04/09 06:42:15;;;;;;;4.40;1.70;;;;;;;;;;10514321;28;20196;-70
2021/04/09 06:47:17;;;;;;;8.87;2.00;;;;;;;;;;10511647;28;20226;-70
2021/04/09 06:52:20;;;;;;;6.77;1.80;;;;;;;;;;10517459;28;20211;-69
2021/04/09 06:57:23;;;;;;;5.30;1.97;;;;;;;;;;10523442;28;20204;-70
2021/04/09 07:02:25;;;;;;;8.03;1.80;;;;;;;;;;10514946;28;20286;-71
2021/04/09 07:07:27;;;;;;;4.40;1.90;;;;;;;;;;10510548;28;20327;-70
2021/04/09 07:12:30;;;;;;;7.23;2.00;;;;;;;;;;10521104;28;20282;-70
2021/04/09 07:17:32;;;;;;;6.73;1.97;;;;;;;;;;10508776;28;20208;-69
2021/04/09 07:22:36;;;;;;;6.07;2.03;;;;;;;;;;10513775;28;20253;-69
2021/04/09 07:27:38;;;;;;;5.67;2.03;;;;;;;;;;10518009;28;20583;-70
2021/04/09 07:32:40;;;;;;;5.40;2.00;;;;;;;;;;10511256;28;20188;-71
2021/04/09 07:37:51;;;;;;;8.73;2.20;;;;;;;;;;10510954;28;20593;-70
2021/04/09 07:42:54;;;;;;;4.05;1.80;;;;;;;;;;10512079;28;20287;-70
2021/04/09 07:47:57;;;;;;;4.15;2.00;;;;;;;;;;10504154;28;20691;-70
2021/04/09 07:53:00;;;;;;;4.88;2.13;;;;;;;;;;10509723;28;21590;-70
2021/04/09 07:58:15;;;;;;;6.80;2.55;;;;;;;;;;10510190;28;20219;-71
2021/04/09 08:08:59;;;;;;;5.32;2.20;;;;;;;;;;12404768;23;20272;-71
2021/04/09 08:14:05;;;;;;;3.05;1.90;;;;;;;;;;10320220;28;20221;-70
2021/04/09 08:19:09;;;;;;;5.45;1.80;;;;;;;;;;10363194;28;20218;-71
2021/04/09 08:24:11;;;;;;;3.65;1.92;;;;;;;;;;10331763;28;20203;-72
2021/04/09 08:29:15;;;;;;;5.07;2.00;;;;;;;;;;10334625;28;20225;-72
2021/04/09 08:34:19;;;;;;;4.82;1.98;;;;;;;;;;10348421;28;20302;-73
2021/04/09 08:39:21;;;;;;;4.60;2.08;;;;;;;;;;10338621;28;20229;-72
2021/04/09 08:44:23;;;;;;;4.78;1.80;;;;;;;;;;10370318;28;20202;-73
2021/04/09 08:49:26;;;;;;;4.88;1.90;;;;;;;;;;10353822;28;20222;-72
2021/04/09 08:54:29;;;;;;;3.22;1.90;;;;;;;;;;10341412;28;20223;-72
2021/04/09 08:59:41;;;;;;;3.33;1.83;;;;;;;;;;10349171;28;20222;-72
2021/04/09 09:04:57;;;;;;;2.90;2.00;;;;;;;;;;10369702;28;20186;-72
2021/04/09 09:10:38;;;;;;;3.55;2.00;;;;;;;;;;10372673;28;20272;-72
2021/04/09 09:15:54;;;;;;;5.55;2.00;;;;;;;;;;10345098;28;20218;-73
2021/04/09 09:21:02;;;;;;;2.67;1.80;;;;;;;;;;10371949;28;20593;-72
2021/04/09 09:26:16;;;;;;;4.70;2.15;;;;;;;;;;10351380;28;20201;-71
2021/04/09 09:31:28;;;;;;;4.95;2.10;;;;;;;;;;10359385;28;20265;-72
2021/04/09 09:36:54;;;;;;;3.90;2.28;;;;;;;;;;10375579;28;20233;-72
2021/04/09 09:41:56;;;;;;;5.57;2.70;;;;;;;;;;10347045;28;20313;-72
2021/04/09 09:47:01;;;;;;;4.93;2.47;;;;;;;;;;10349601;28;20233;-71
2021/04/09 09:52:03;;;;;;;4.65;2.38;;;;;;;;;;10361012;28;20222;-71
2021/04/09 09:57:19;;;;;;;4.18;2.30;;;;;;;;;;10365474;28;20218;-72
2021/04/09 10:02:23;;;;;;;5.38;2.28;;;;;;;;;;10377328;28;20213;-73
2021/04/09 10:07:25;;;;;;;3.28;2.13;;;;;;;;;;10374626;28;20292;-72
2021/04/09 10:12:26;;;;;;;4.90;2.40;;;;;;;;;;10369339;28;20234;-72
2021/04/09 10:17:29;;;;;;;5.72;2.40;;;;;;;;;;10374606;28;20241;-69
2021/04/09 10:22:31;;;;;;;4.30;2.38;;;;;;;;;;10345327;28;20690;-72
2021/04/09 10:27:32;;;;;;;4.93;2.30;;;;;;;;;;10365471;28;20197;-72
2021/04/09 10:32:35;;;;;;;5.82;2.50;;;;;;;;;;10353786;28;20638;-72
2021/04/09 10:37:38;;;;;;;3.38;2.05;;;;;;;;;;10348748;28;20317;-72
2021/04/09 10:42:58;;;;;;;7.75;2.55;;;;;;;;;;10377078;28;20223;-72
2021/04/09 10:48:00;;;;;;;2.92;1.90;;;;;;;;;;10364356;28;20198;-72
2021/04/09 10:53:02;;;;;;;3.55;1.95;;;;;;;;;;10343918;28;20194;-72
2021/04/09 10:58:03;;;;;;;2.97;2.00;;;;;;;;;;10366664;28;20221;-72
2021/04/09 11:03:07;;;;;;;7.35;3.00;;;;;;;;;;10350613;28;20213;-71
2021/04/09 11:08:09;;;;;;;3.78;2.10;;;;;;;;;;10354574;28;20198;-71
2021/04/09 11:13:11;;;;;;;3.17;1.85;;;;;;;;;;10347683;28;20210;-70
2021/04/09 11:18:14;;;;;;;3.40;1.70;;;;;;;;;;10368148;28;20234;-71
2021/04/09 11:23:17;;;;;;;3.92;1.80;;;;;;;;;;10374681;28;20199;-71
2021/04/09 11:28:23;;;;;;;3.80;1.80;;;;;;;;;;10349630;28;20215;-71
2021/04/09 11:33:30;;;;;;;4.43;1.73;;;;;;;;;;10347166;28;20206;-71
2021/04/09 11:38:35;;;;;;;3.00;2.00;;;;;;;;;;10375416;28;20226;-71
2021/04/09 11:43:37;;;;;;;3.78;1.80;;;;;;;;;;10358913;28;20260;-71
2021/04/09 11:48:39;;;;;;;3.13;1.75;;;;;;;;;;10355016;28;20213;-71
2021/04/09 11:53:41;;;;;;;3.47;1.45;;;;;;;;;;10366623;28;20293;-71
2021/04/09 11:58:43;;;;;;;3.75;1.80;;;;;;;;;;10355256;28;20229;-72
2021/04/09 12:03:45;;;;;;;5.40;2.13;;;;;;;;;;10371654;28;20221;-72
2021/04/09 12:08:49;;;;;;;4.47;1.98;;;;;;;;;;10350857;28;20241;-72
2021/04/09 12:13:52;;;;;;;4.00;1.80;;;;;;;;;;10363905;28;20204;-71
2021/04/09 12:18:54;;;;;;;4.03;1.80;;;;;;;;;;10347897;28;20222;-71
2021/04/09 12:23:56;;;;;;;3.25;1.70;;;;;;;;;;10381006;28;20564;-72
2021/04/09 12:28:58;;;;;;;4.43;2.05;;;;;;;;;;10355503;28;20224;-71
2021/04/09 12:34:01;;;;;;;3.00;1.80;;;;;;;;;;10338155;28;20521;-71
2021/04/09 12:39:03;;;;;;;4.40;2.15;;;;;;;;;;10372458;28;20609;-71
2021/04/09 12:44:05;;;;;;;3.95;1.77;;;;;;;;;;10345862;28;20202;-71
2021/04/09 12:49:07;;;;;;;2.78;1.85;;;;;;;;;;10348012;28;20213;-69
2021/04/09 12:54:09;;;;;;;3.53;1.90;;;;;;;;;;10357437;28;20538;-70
2021/04/09 12:59:11;;;;;;;4.35;1.60;;;;;;;;;;10343692;28;20702;-71
2021/04/09 13:04:13;;;;;;;3.97;2.00;;;;;;;;;;10363815;28;20696;-69
2021/04/09 13:09:15;;;;;;;4.05;1.80;;;;;;;;;;10368106;28;20233;-72
2021/04/09 13:14:16;;;;;;;4.93;1.92;;;;;;;;;;10355086;28;20786;-71
2021/04/09 13:19:19;;;;;;;4.20;1.77;;;;;;;;;;10380696;28;20230;-72
2021/04/09 13:24:20;;;;;;;3.10;1.60;;;;;;;;;;10347791;28;20245;-72
2021/04/09 13:29:22;;;;;;;3.87;1.87;;;;;;;;;;10342242;28;20711;-71
2021/04/09 13:34:25;;;;;;;4.40;1.43;;;;;;;;;;10378818;28;20209;-72
2021/04/09 13:39:26;;;;;;;3.70;1.97;;;;;;;;;;10342772;28;20257;-71
2021/04/09 13:44:28;;;;;;;4.27;2.00;;;;;;;;;;10348968;28;20253;-70
2021/04/09 13:49:30;;;;;;;3.57;1.53;;;;;;;;;;10360831;28;20305;-71
2021/04/09 13:54:32;;;;;;;4.90;1.70;;;;;;;;;;10345323;28;20650;-71
2021/04/09 13:59:34;;;;;;;5.03;2.07;;;;;;;;;;10359285;28;20550;-71
2021/04/09 14:04:36;;;;;;;4.68;1.90;;;;;;;;;;10358501;28;20450;-72
2021/04/09 14:09:39;;;;;;;4.23;1.70;;;;;;;;;;10356514;28;20220;-70
2021/04/09 14:14:40;;;;;;;2.63;1.50;;;;;;;;;;10358213;28;20232;-71
2021/04/09 14:19:44;;;;;;;4.13;1.80;;;;;;;;;;10357897;28;20216;-71
2021/04/09 14:24:45;;;;;;;3.27;1.60;;;;;;;;;;10368126;28;20192;-71
2021/04/09 14:29:47;;;;;;;5.00;1.80;;;;;;;;;;10361603;28;20249;-73
2021/04/09 14:34:49;;;;;;;3.73;1.67;;;;;;;;;;10377871;28;20888;-72
2021/04/09 14:39:51;;;;;;;3.13;1.47;;;;;;;;;;10375185;28;20588;-70
2021/04/09 14:44:54;;;;;;;5.43;1.70;;;;;;;;;;10370168;28;20274;-72
2021/04/09 14:49:56;;;;;;;5.73;1.67;;;;;;;;;;10346819;28;20784;-72
2021/04/09 14:54:59;;;;;;;5.43;1.80;;;;;;;;;;10362747;28;20211;-71
2021/04/09 15:00:01;;;;;;;2.93;1.50;;;;;;;;;;10351587;28;20701;-70
2021/04/09 15:05:04;;;;;;;3.43;1.60;;;;;;;;;;10347506;28;20194;-71
2021/04/09 15:10:07;;;;;;;3.83;1.93;;;;;;;;;;10385350;28;20218;-70
2021/04/09 15:15:09;;;;;;;4.30;2.03;;;;;;;;;;10364317;28;20276;-70
2021/04/09 15:20:14;;;;;;;4.63;2.00;;;;;;;;;;10380009;28;20310;-70
2021/04/09 15:25:15;;;;;;;4.07;1.80;;;;;;;;;;10342326;28;20202;-70
2021/04/09 15:30:20;;;;;;;7.77;2.00;;;;;;;;;;10359368;28;20224;-70
2021/04/09 15:35:22;;;;;;;4.70;1.83;;;;;;;;;;10364867;28;20637;-71
2021/04/09 15:40:24;;;;;;;4.27;1.87;;;;;;;;;;10362033;28;20984;-71
2021/04/09 15:45:31;;;;;;;3.77;1.50;;;;;;;;;;10358281;28;20197;-70
2021/04/09 15:50:37;;;;;;;6.20;2.07;;;;;;;;;;10362451;28;20296;-70
2021/04/09 15:55:40;;;;;;;5.03;1.80;;;;;;;;;;10361587;28;20268;-72
2021/04/09 16:00:41;;;;;;;5.07;1.83;;;;;;;;;;10370989;28;20226;-72
2021/04/09 16:05:44;;;;;;;4.47;1.90;;;;;;;;;;10339800;28;20206;-71
2021/04/09 16:10:46;;;;;;;5.43;2.10;;;;;;;;;;10353077;28;20759;-72
2021/04/09 16:15:48;;;;;;;4.40;2.03;;;;;;;;;;10366772;28;20218;-72
2021/04/09 16:20:50;;;;;;;4.00;1.90;;;;;;;;;;10364165;28;20214;-71
2021/04/09 16:25:54;;;;;;;4.30;2.00;;;;;;;;;;10345000;28;20213;-69
2021/04/09 16:30:57;;;;;;;4.83;1.90;;;;;;;;;;10343504;28;20301;-73
2021/04/09 16:36:00;;;;;;;6.13;2.17;;;;;;;;;;10344494;28;20601;-71
2021/04/09 16:41:01;;;;;;;8.57;3.57;;;;;;;;;;10367860;28;20226;-74
2021/04/09 16:46:03;;;;;;;5.33;2.00;;;;;;;;;;10349333;28;20241;-71
2021/04/09 16:51:07;;;;;;;6.40;2.10;;;;;;;;;;10379261;28;20218;-72
2021/04/09 16:56:08;;;;;;;4.17;1.90;;;;;;;;;;10378983;28;20254;-71
2021/04/09 17:01:10;;;;;;;7.40;2.30;;;;;;;;;;10356798;28;20277;-72
2021/04/09 17:06:13;;;;;;;7.17;2.03;;;;;;;;;;10346268;28;20526;-72
2021/04/09 17:11:33;;;;;;;5.67;2.10;;;;;;;;;;10356114;28;20240;-72
2021/04/09 17:16:35;;;;;;;6.30;2.20;;;;;;;;;;10350279;28;20262;-72
2021/04/09 17:21:38;;;;;;;6.20;2.33;;;;;;;;;;10359609;28;20209;-70
2021/04/09 17:26:40;;;;;;;11.10;5.20;;;;;;;;;;10374593;28;20281;-70
2021/04/09 17:31:43;;;;;;;5.93;2.70;;;;;;;;;;10353324;28;20222;-70
2021/04/09 17:36:45;;;;;;;7.83;2.60;;;;;;;;;;10354674;28;20250;-69
2021/04/09 17:41:47;;;;;;;7.90;2.60;;;;;;;;;;10367584;28;20296;-69
2021/04/09 17:46:48;;;;;;;7.73;2.40;;;;;;;;;;10343305;28;20572;-70
2021/04/09 17:51:51;;;;;;;6.80;2.80;;;;;;;;;;10374345;28;20293;-69
2021/04/09 17:56:52;;;;;;;6.87;2.77;;;;;;;;;;10353853;28;20225;-70
2021/04/09 18:01:56;;;;;;;8.93;2.73;;;;;;;;;;10375795;28;20224;-70
2021/04/09 18:07:00;;;;;;;7.57;2.90;;;;;;;;;;10373292;28;20187;-70
2021/04/09 18:12:01;;;;;;;7.47;2.77;;;;;;;;;;10353288;28;20228;-72
2021/04/09 18:17:03;;;;;;;7.80;3.13;;;;;;;;;;10364528;28;20285;-72
2021/04/09 18:22:06;;;;;;;9.20;3.70;;;;;;;;;;10358605;28;20239;-71
2021/04/09 18:27:07;;;;;;;9.90;4.13;;;;;;;;;;10347615;28;20203;-71
2021/04/09 18:32:09;;;;;;;11.70;5.37;;;;;;;;;;10372539;28;20759;-71
2021/04/09 18:37:12;;;;;;;10.50;5.27;;;;;;;;;;10360191;28;20209;-70
2021/04/09 18:42:14;;;;;;;10.37;4.40;;;;;;;;;;10353155;28;20632;-70
2021/04/09 18:47:16;;;;;;;11.27;4.50;;;;;;;;;;10358869;28;20248;-70
2021/04/09 18:52:18;;;;;;;10.20;4.80;;;;;;;;;;10352787;28;20218;-70
2021/04/09 18:57:20;;;;;;;13.03;6.93;;;;;;;;;;10371897;28;20230;-71
2021/04/09 19:02:22;;;;;;;11.83;5.37;;;;;;;;;;10357361;28;20218;-71
2021/04/09 19:07:25;;;;;;;10.17;4.00;;;;;;;;;;10357558;28;20635;-70
2021/04/09 19:12:27;;;;;;;10.60;3.67;;;;;;;;;;10365504;28;20233;-71
2021/04/09 19:17:28;;;;;;;8.20;4.20;;;;;;;;;;10353058;28;20261;-70
2021/04/09 19:22:31;;;;;;;8.93;4.27;;;;;;;;;;10363002;28;20230;-71
2021/04/09 19:27:49;;;;;;;9.80;3.93;;;;;;;;;;10369865;28;20186;-71
2021/04/09 19:32:51;;;;;;;8.37;4.30;;;;;;;;;;10364569;28;20675;-69
2021/04/09 19:37:56;;;;;;;10.27;4.40;;;;;;;;;;10341577;28;20305;-71
2021/04/09 19:42:59;;;;;;;9.17;3.37;;;;;;;;;;10342109;28;20209;-71
2021/04/09 19:48:00;;;;;;;10.10;3.50;;;;;;;;;;10342583;28;20418;-71
2021/04/09 19:53:03;;;;;;;9.07;3.93;;;;;;;;;;10366647;28;20245;-70
2021/04/09 19:58:05;;;;;;;9.50;4.20;;;;;;;;;;10347651;28;20213;-69
2021/04/09 20:03:07;;;;;;;8.33;3.60;;;;;;;;;;10370198;28;20666;-68
2021/04/09 20:08:10;;;;;;;7.30;3.10;;;;;;;;;;10337255;28;20222;-68
2021/04/09 20:13:11;;;;;;;8.43;3.80;;;;;;;;;;10338272;28;20218;-68
2021/04/09 20:18:33;;;;;;;6.23;3.20;;;;;;;;;;10363725;28;20250;-69
2021/04/09 20:23:40;;;;;;;8.50;3.43;;;;;;;;;;10377247;28;20198;-69
2021/04/09 20:28:41;;;;;;;8.83;3.30;;;;;;;;;;10369369;28;20279;-70
2021/04/09 20:33:43;;;;;;;7.37;3.20;;;;;;;;;;10367194;28;20639;-69
2021/04/09 20:38:46;;;;;;;8.10;3.37;;;;;;;;;;10344228;28;20222;-68
2021/04/09 20:43:47;;;;;;;6.57;3.27;;;;;;;;;;10351856;28;20199;-69
2021/04/09 20:48:49;;;;;;;7.30;3.20;;;;;;;;;;10367263;28;20417;-68
2021/04/09 20:53:51;;;;;;;8.57;3.70;;;;;;;;;;10339519;28;20566;-67
2021/04/09 20:58:53;;;;;;;3.60;2.00;;;;;;;;;;10350985;28;20231;-68
2021/04/09 21:03:55;;;;;;;7.27;3.40;;;;;;;;;;10351491;28;20202;-69
2021/04/09 21:08:57;;;;;;;7.10;3.07;;;;;;;;;;10378051;28;20668;-68
2021/04/09 21:13:59;;;;;;;9.43;3.10;;;;;;;;;;10372918;28;20662;-69
2021/04/09 21:19:00;;;;;;;7.33;3.33;;;;;;;;;;10359147;28;20245;-70
2021/04/09 21:24:03;;;;;;;7.03;2.93;;;;;;;;;;10357759;28;20194;-70
2021/04/09 21:29:05;;;;;;;6.33;2.40;;;;;;;;;;10377234;28;20321;-68
2021/04/09 21:34:06;;;;;;;5.87;2.13;;;;;;;;;;10385194;28;20286;-69
2021/04/09 21:39:09;;;;;;;5.50;2.27;;;;;;;;;;10374057;28;20666;-72
2021/04/09 21:44:10;;;;;;;4.43;2.10;;;;;;;;;;10373578;28;20300;-70
2021/04/09 21:49:12;;;;;;;6.47;2.47;;;;;;;;;;10341428;28;20301;-69
2021/04/09 21:54:15;;;;;;;3.83;1.80;;;;;;;;;;10340338;28;20209;-69
2021/04/09 21:59:17;;;;;;;9.37;3.27;;;;;;;;;;10356054;28;20665;-70
2021/04/09 22:04:19;;;;;;;8.33;3.10;;;;;;;;;;10364881;28;20205;-69
2021/04/09 22:09:22;;;;;;;6.82;3.10;;;;;;;;;;10362174;28;21073;-69
2021/04/09 22:14:24;;;;;;;6.07;2.20;;;;;;;;;;10343771;28;20225;-69
2021/04/09 22:19:25;;;;;;;4.33;2.00;;;;;;;;;;10362673;28;20785;-69
2021/04/09 22:24:28;;;;;;;6.63;2.93;;;;;;;;;;10364791;28;20198;-71
2021/04/09 22:29:30;;;;;;;8.33;2.70;;;;;;;;;;10340991;28;20222;-68
2021/04/09 22:34:32;;;;;;;7.17;2.77;;;;;;;;;;10360003;28;20199;-68
2021/04/09 22:39:34;;;;;;;5.77;2.47;;;;;;;;;;10345749;28;20284;-70
2021/04/09 22:44:36;;;;;;;7.60;2.60;;;;;;;;;;10350241;28;20222;-70
2021/04/09 22:49:39;;;;;;;5.67;2.50;;;;;;;;;;10356021;28;20228;-70
2021/04/09 22:54:41;;;;;;;8.40;2.80;;;;;;;;;;10383670;28;20196;-69
2021/04/09 22:59:43;;;;;;;3.63;1.37;;;;;;;;;;10378173;28;20298;-70
2021/04/09 23:04:45;;;;;;;5.07;1.67;;;;;;;;;;10372443;28;20256;-68
2021/04/09 23:09:47;;;;;;;6.43;2.60;;;;;;;;;;10356366;28;20619;-70
2021/04/09 23:14:49;;;;;;;6.53;2.63;;;;;;;;;;10388496;28;20296;-69
2021/04/09 23:19:51;;;;;;;6.53;2.50;;;;;;;;;;10367083;28;20324;-68
2021/04/09 23:24:54;;;;;;;7.00;2.60;;;;;;;;;;10359076;28;20217;-68
2021/04/09 23:29:56;;;;;;;5.50;2.50;;;;;;;;;;10367644;28;20210;-68
2021/04/09 23:34:57;;;;;;;5.63;2.30;;;;;;;;;;10377755;28;20186;-69
2021/04/09 23:40:00;;;;;;;5.50;2.33;;;;;;;;;;10390644;28;20538;-69
2021/04/09 23:45:03;;;;;;;7.10;2.80;;;;;;;;;;10371644;28;20204;-69
2021/04/09 23:50:05;;;;;;;5.40;2.20;;;;;;;;;;10356696;28;20681;-70
2021/04/09 23:55:08;;;;;;;7.57;2.60;;;;;;;;;;10338539;28;20233;-70
